Cytokinetics Inc (CYTK)

Market is closed
Insider Trading: Sales
Insider Price Amount Total Value Remaining Holdings Date Form 4
$54.22 5,000 $271,100.00 20,600 2024-07-01 Filing
$54.05 11,500 $621,575.00 405,145 2024-07-01 Filing
$53.71 5,300 $284,663.00 133,004 2024-06-25 Filing
$53.74 2,000 $107,480.00 133,004 2024-06-25 Filing
$52.55 5,000 $262,750.00 20,600 2024-06-17 Filing
$52.59 10,949 $575,807.91 416,645 2024-06-17 Filing
$52.60 11,551 $607,582.60 427,594 2024-06-17 Filing
$53.03 2,366 $125,468.98 135,004 2024-06-11 Filing
$53.05 5,422 $287,637.10 137,370 2024-06-11 Filing
$52.07 2,000 $104,140.00 17,631 2024-06-10 Filing
$48.85 22,500 $1,099,125.00 439,145 2024-06-04 Filing
$48.64 1,580 $76,851.20 15,541 2024-06-03 Filing
$48.64 5,000 $243,200.00 15,600 2024-06-03 Filing
$48.88 13,011 $635,977.68 16,653 2024-06-03 Filing
$65.11 1,361 $88,614.71 137,056 2024-05-07 Filing
$65.11 14,186 $923,650.46 138,417 2024-05-07 Filing
$64.54 10,562 $681,671.48 32,070 2024-04-25 Filing
$74.32 4,000 $297,280.00 138,567 2024-04-09 Filing
$74.31 28,605 $2,125,637.55 142,567 2024-04-09 Filing
$67.56 28,604 $1,932,486.24 138,973 2024-03-05 Filing